Date,TemperatureHighF,TemperatureAvgF,TemperatureLowF,DewpointHighF,DewpointAvgF,DewpointLowF,HumidityHigh,HumidityAvg,HumidityLow,PressureMaxIn,PressureMinIn,WindSpeedMaxMPH,WindSpeedAvgMPH,GustSpeedMaxMPH,PrecipitationSumIn
2013-11-3,63.4,56.9,53.0,43.4,40.8,39.1,69,55,45,29.93,29.85,17,5,21,0.00
2013-11-4,63.2,55.4,49.4,52.8,47.4,42.6,88,75,57,30.06,29.82,14,2,14,0.00
2013-11-5,60.3,55.1,40.7,59.2,53.3,38.4,96,94,88,30.06,29.84,15,3,15,0.45
2013-11-6,47.9,40.0,34.7,38.6,35.2,32.3,92,83,66,30.39,30.06,16,3,0,0.00
2013-11-7,63.2,44.0,31.1,41.0,35.6,29.6,96,76,40,30.50,30.33,6,0,0,0.01
2013-11-8,65.3,52.0,38.2,39.4,36.3,34.3,87,58,33,30.33,29.91,23,5,23,0.00
2013-11-9,67.8,51.4,39.7,50.0,41.2,35.6,85,69,45,30.30,30.01,7,0,0,0.00
2013-11-10,65.7,52.3,41.0,50.1,44.5,37.8,93,76,54,30.39,30.24,6,1,0,0.00
2013-11-11,57.9,48.4,28.9,53.7,43.9,21.0,92,84,68,30.65,30.17,21,4,20,0.00
2013-11-12,36.6,27.5,20.8,20.6,15.2,11.5,87,61,36,30.93,30.65,17,4,17,0.00
2013-11-13,49.4,35.0,20.0,26.6,20.1,15.2,88,57,38,30.77,30.25,16,4,16,0.00
2013-11-14,55.9,44.0,35.2,33.4,29.2,21.9,69,57,40,30.25,29.98,15,4,15,0.00
2013-11-15,61.4,48.2,34.5,49.1,40.3,30.1,91,75,52,29.99,29.68,13,2,13,0.00
2013-11-16,75.6,64.0,53.9,57.1,54.5,49.1,88,73,47,29.69,29.38,20,7,24,0.00
2013-11-17,66.6,57.8,47.3,53.9,32.9,14.1,76,43,16,30.09,29.38,16,4,16,0.00
2013-11-18,64.8,46.7,31.2,33.1,27.5,22.9,87,51,22,30.31,30.06,13,0,0,0.00
2013-11-19,60.0,49.7,40.3,37.5,31.5,28.8,69,51,34,30.25,29.91,15,2,15,0.00
2013-11-20,59.6,53.7,50.3,48.5,39.9,29.8,75,60,44,29.92,29.80,18,3,18,0.00
2013-11-21,53.9,38.5,25.8,51.9,35.7,21.1,95,90,73,30.54,29.90,22,7,22,0.39
2013-11-22,28.8,26.0,23.0,22.4,19.3,17.4,89,76,62,30.73,30.54,27,8,27,0.00
2013-11-23,34.9,29.4,20.6,21.8,16.3,9.9,68,58,41,30.83,30.69,17,6,17,0.00
2013-11-24,27.6,23.5,18.6,16.8,13.7,11.5,77,66,53,30.80,30.39,7,1,0,0.00
2013-11-25,34.9,30.2,27.0,27.9,22.8,14.0,90,74,56,30.39,30.26,8,1,0,0.00
2013-11-26,39.9,31.3,22.6,27.4,20.8,10.9,87,66,45,30.52,30.27,19,5,19,0.00
2013-11-27,38.6,26.7,15.5,18.9,14.7,9.7,80,61,42,30.53,30.27,11,2,0,0.00
2013-11-28,48.9,34.7,24.2,31.7,24.6,18.3,86,67,50,30.49,30.25,9,2,0,0.00
2013-11-29,55.2,38.3,24.4,35.5,27.4,20.7,88,67,42,30.49,30.23,13,1,13,0.00
2013-11-30,60.4,43.2,31.1,40.7,34.3,27.7,92,73,45,30.23,30.11,11,1,0,0.00